createdAt,value
2019-06-07T00:00:41.370Z,99.80
2019-06-07T00:03:24.881Z,99.60
2019-06-07T00:05:47.015Z,99.90
2019-06-07T00:08:27.177Z,99.90
2019-06-07T00:10:54.558Z,99.90
2019-06-07T00:13:25.886Z,99.90
2019-06-07T00:15:58.500Z,99.90
2019-06-07T00:18:29.476Z,99.90
2019-06-07T00:21:00.850Z,99.90
2019-06-07T00:23:32.115Z,99.90
2019-06-07T00:26:03.376Z,99.90
2019-06-07T00:28:34.352Z,99.90
2019-06-07T00:31:05.795Z,99.90
2019-06-07T00:33:37.089Z,99.90
2019-06-07T00:36:09.983Z,99.90
2019-06-07T00:38:41.072Z,99.90
2019-06-07T00:41:24.274Z,99.90
2019-06-07T00:43:55.509Z,99.90
2019-06-07T00:46:26.752Z,99.90
2019-06-07T00:48:58.053Z,99.90
2019-06-07T00:51:49.204Z,99.90
2019-06-07T00:54:02.321Z,99.90
2019-06-07T00:56:33.601Z,99.90
2019-06-07T00:59:11.094Z,99.90
2019-06-07T01:01:43.404Z,99.90
2019-06-07T01:04:17.725Z,99.90
2019-06-07T01:06:47.786Z,99.90
2019-06-07T01:09:23.916Z,99.90
2019-06-07T01:11:55.291Z,99.90
2019-06-07T01:14:28.515Z,99.90
2019-06-07T01:17:22.245Z,99.90
2019-06-07T01:19:32.545Z,99.90
2019-06-07T01:22:03.483Z,99.90
2019-06-07T01:24:34.647Z,99.90
2019-06-07T01:27:06.039Z,99.90
2019-06-07T01:29:37.324Z,99.90
2019-06-07T01:32:08.648Z,99.90
2019-06-07T01:34:39.996Z,99.90
2019-06-07T01:37:11.272Z,99.90
2019-06-07T01:39:42.446Z,99.90
2019-06-07T01:42:13.664Z,99.90
2019-06-07T01:44:44.913Z,99.90
2019-06-07T01:47:17.847Z,99.90
2019-06-07T01:49:49.220Z,99.90
2019-06-07T01:52:23.584Z,99.90
2019-06-07T01:54:58.325Z,99.90
2019-06-07T01:57:38.288Z,99.90
2019-06-07T01:59:59.309Z,99.90
2019-06-07T02:02:33.010Z,99.90
2019-06-07T02:05:04.650Z,99.90
2019-06-07T02:07:35.687Z,99.90
2019-06-07T02:10:07.531Z,99.90
2019-06-07T02:12:43.160Z,99.90
2019-06-07T02:15:13.591Z,99.90
2019-06-07T02:17:44.925Z,99.90
2019-06-07T02:20:16.266Z,99.90
2019-06-07T02:22:47.444Z,99.90
2019-06-07T02:27:51.608Z,99.90
2019-06-07T02:30:40.564Z,99.90
2019-06-07T02:32:55.837Z,99.90
2019-06-07T02:35:34.763Z,99.90
2019-06-07T02:37:59.793Z,99.90
2019-06-07T02:40:36.391Z,99.90
2019-06-07T02:43:03.674Z,99.90
2019-06-07T02:45:42.171Z,99.90
2019-06-07T02:48:07.865Z,99.90
2019-06-07T02:50:39.045Z,99.90
2019-06-07T02:53:11.020Z,99.90
2019-06-07T02:56:32.964Z,99.90
2019-06-07T02:58:14.900Z,99.90
2019-06-07T03:01:07.012Z,99.90
2019-06-07T03:03:22.372Z,99.90
2019-06-07T03:05:53.249Z,99.90
2019-06-07T03:08:25.724Z,99.90
2019-06-07T03:10:58.195Z,99.90
2019-06-07T03:13:34.182Z,99.90
2019-06-07T03:16:06.156Z,99.90
2019-06-07T03:18:57.693Z,99.90
2019-06-07T03:21:29.485Z,99.90
2019-06-07T03:24:05.336Z,99.90
2019-06-07T03:27:30.552Z,99.90
2019-06-07T03:29:10.928Z,99.90
2019-06-07T03:31:47.505Z,99.90
2019-06-07T03:34:15.290Z,99.90
2019-06-07T03:36:46.536Z,99.90
2019-06-07T03:39:17.764Z,99.90
2019-06-07T03:42:05.232Z,99.90
2019-06-07T03:44:22.664Z,99.90
2019-06-07T03:46:53.844Z,99.90
2019-06-07T03:49:25.028Z,99.90
2019-06-07T03:51:56.448Z,99.90
2019-06-07T03:54:27.619Z,99.90
2019-06-07T03:56:59.181Z,99.90
2019-06-07T03:59:35.566Z,99.90
2019-06-07T04:02:03.240Z,99.90
2019-06-07T04:04:37.818Z,99.90
2019-06-07T04:07:06.775Z,99.90
2019-06-07T04:09:42.063Z,99.90
2019-06-07T04:12:10.655Z,99.90
2019-06-07T04:14:42.840Z,99.90
2019-06-07T04:17:14.803Z,99.90
2019-06-07T04:19:46.638Z,99.90
2019-06-07T04:22:18.214Z,99.90
2019-06-07T04:24:49.991Z,99.90
2019-06-07T04:27:21.205Z,99.90
2019-06-07T04:30:06.813Z,99.90
2019-06-07T04:32:26.276Z,99.90
2019-06-07T04:34:58.829Z,99.90
2019-06-07T04:37:31.143Z,99.90
2019-06-07T04:40:03.275Z,99.90
2019-06-07T04:42:41.750Z,99.90
2019-06-07T04:45:32.405Z,99.90
2019-06-07T04:47:44.472Z,99.90
2019-06-07T04:50:15.511Z,99.90
2019-06-07T04:52:46.820Z,99.90
2019-06-07T04:55:18.097Z,99.90
2019-06-07T04:57:49.531Z,99.90
2019-06-07T05:03:03.048Z,99.90
2019-06-07T05:05:37.443Z,99.90
2019-06-07T05:08:26.620Z,99.90
2019-06-07T05:10:43.894Z,99.90
2019-06-07T05:13:14.413Z,99.90
2019-06-07T05:15:45.918Z,99.90
2019-06-07T05:18:17.342Z,99.90
2019-06-07T05:20:48.507Z,99.90
2019-06-07T05:23:59.814Z,99.90
2019-06-07T05:25:53.597Z,99.90
2019-06-07T05:28:25.024Z,99.90
2019-06-07T05:31:05.762Z,99.90
2019-06-07T05:33:31.187Z,99.90
2019-06-07T05:36:03.012Z,99.90
2019-06-07T05:38:36.068Z,99.90
2019-06-07T05:41:21.672Z,99.90
2019-06-07T05:47:11.255Z,99.90
2019-06-07T05:49:46.315Z,99.90
2019-06-07T05:52:21.214Z,99.90
2019-06-07T05:54:53.069Z,99.90
2019-06-07T05:57:24.172Z,99.90
2019-06-07T05:59:55.159Z,99.90
2019-06-07T06:02:26.233Z,99.90
2019-06-07T06:04:57.512Z,99.90
2019-06-07T06:07:29.424Z,99.90
2019-06-07T06:10:00.616Z,99.90
2019-06-07T06:12:35.148Z,99.90
2019-06-07T06:15:16.734Z,99.90
2019-06-07T06:17:53.443Z,99.90
2019-06-07T06:20:23.278Z,99.90
2019-06-07T06:22:55.641Z,99.90
2019-06-07T06:25:33.145Z,99.90
2019-06-07T06:28:10.973Z,99.90
2019-06-07T06:30:38.260Z,99.90
2019-06-07T06:33:27.084Z,99.90
2019-06-07T06:35:45.133Z,99.90
2019-06-07T06:38:18.904Z,99.90
2019-06-07T06:41:05.259Z,99.90
2019-06-07T06:43:24.435Z,99.90
2019-06-07T06:45:55.692Z,99.90
2019-06-07T06:48:27.206Z,99.90
2019-06-07T06:51:01.348Z,99.90
2019-06-07T06:53:32.893Z,99.90
2019-06-07T06:56:04.205Z,99.90
2019-06-07T06:59:18.642Z,99.90
2019-06-07T07:01:08.384Z,99.90
2019-06-07T07:04:00.121Z,99.80
2019-06-07T07:06:25.761Z,99.00
2019-06-07T07:08:51.407Z,99.10
2019-06-07T07:11:26.916Z,99.70
2019-06-07T07:13:59.069Z,99.60
2019-06-07T07:16:30.075Z,99.90
2019-06-07T07:19:03.216Z,99.00
2019-06-07T07:21:38.690Z,98.60
2019-06-07T07:24:20.892Z,98.20
2019-06-07T07:26:46.773Z,98.40
2019-06-07T07:29:16.499Z,98.30
2019-06-07T07:31:50.830Z,97.70
2019-06-07T07:34:34.696Z,97.60
2019-06-07T07:36:59.797Z,97.10
2019-06-07T07:39:31.385Z,97.50
2019-06-07T07:42:20.390Z,97.50
2019-06-07T07:44:35.883Z,97.20
2019-06-07T07:47:08.261Z,97.40
2019-06-07T07:49:39.341Z,98.10
2019-06-07T07:52:10.607Z,97.50
2019-06-07T07:54:41.721Z,97.70
2019-06-07T07:57:13.265Z,96.90
2019-06-07T08:00:02.098Z,96.60
2019-06-07T08:02:22.077Z,97.20
2019-06-07T08:05:20.544Z,97.30
2019-06-07T08:07:28.780Z,97.60
2019-06-07T08:10:04.566Z,96.60
2019-06-07T08:12:55.930Z,96.80
2019-06-07T08:15:10.637Z,96.50
2019-06-07T08:17:41.862Z,96.90
2019-06-07T08:20:14.500Z,96.40
2019-06-07T08:22:45.673Z,96.10
2019-06-07T08:25:17.400Z,96.60
2019-06-07T08:27:49.498Z,96.60
2019-06-07T08:32:58.815Z,96.30
2019-06-07T08:38:26.523Z,96.90
2019-06-07T08:40:45.218Z,97.00
2019-06-07T08:43:20.604Z,96.60
2019-06-07T08:45:51.329Z,96.40
2019-06-07T08:48:27.797Z,95.80
2019-06-07T08:50:59.916Z,96.20
2019-06-07T08:53:28.234Z,95.20
2019-06-07T08:56:08.925Z,95.00
2019-06-07T08:58:32.299Z,95.40
2019-06-07T09:01:06.428Z,94.90
2019-06-07T09:03:35.911Z,95.00
2019-06-07T09:06:40.004Z,95.00
2019-06-07T09:08:40.108Z,94.70
2019-06-07T09:11:15.085Z,95.00
2019-06-07T09:13:45.999Z,95.30
2019-06-07T09:16:17.180Z,95.30
2019-06-07T09:18:48.104Z,95.20
2019-06-07T09:21:19.412Z,95.90
2019-06-07T09:23:50.853Z,94.70
2019-06-07T09:26:22.558Z,94.10
2019-06-07T09:28:56.207Z,94.60
2019-06-07T09:31:51.168Z,94.70
2019-06-07T09:34:10.291Z,93.90
2019-06-07T09:36:36.612Z,93.30
2019-06-07T09:39:12.257Z,93.50
2019-06-07T09:41:49.608Z,93.30
2019-06-07T09:44:24.884Z,93.90
2019-06-07T09:46:47.099Z,94.00
2019-06-07T09:49:30.566Z,93.80
2019-06-07T09:51:51.232Z,93.60
2019-06-07T09:55:03.994Z,93.90
2019-06-07T09:57:00.376Z,93.50
2019-06-07T09:59:29.673Z,93.20
2019-06-07T10:02:02.771Z,92.90
2019-06-07T10:04:35.334Z,93.00
2019-06-07T10:07:26.925Z,93.30
2019-06-07T10:10:09.975Z,92.40
2019-06-07T10:12:13.312Z,92.00
2019-06-07T10:14:45.314Z,93.70
2019-06-07T10:17:16.796Z,91.60
2019-06-07T10:19:47.860Z,91.20
2019-06-07T10:22:18.842Z,90.80
2019-06-07T10:24:49.883Z,91.00
2019-06-07T10:27:21.593Z,91.10
2019-06-07T10:29:58.161Z,91.50
2019-06-07T10:32:26.844Z,91.60
2019-06-07T10:34:58.489Z,91.70
2019-06-07T10:37:30.080Z,92.10
2019-06-07T10:40:02.915Z,91.50
2019-06-07T10:42:34.573Z,91.60
2019-06-07T10:45:18.674Z,91.10
2019-06-07T10:47:52.740Z,91.60
2019-06-07T10:50:26.983Z,90.80
2019-06-07T10:52:58.785Z,90.40
2019-06-07T10:55:30.049Z,90.80
2019-06-07T10:58:04.816Z,91.00
2019-06-07T11:00:37.617Z,90.70
2019-06-07T11:03:09.933Z,90.30
2019-06-07T11:05:42.914Z,90.30
2019-06-07T11:08:18.837Z,90.60
2019-06-07T11:11:14.367Z,90.90
2019-06-07T11:13:39.573Z,90.70
2019-06-07T11:16:15.509Z,90.90
2019-06-07T11:18:46.857Z,91.20
2019-06-07T11:21:22.621Z,90.70
2019-06-07T11:24:24.265Z,90.30
2019-06-07T11:27:19.470Z,90.00
2019-06-07T11:33:19.195Z,90.00
2019-06-07T11:36:11.019Z,89.50
2019-06-07T11:39:08.526Z,89.50
2019-06-07T11:41:41.478Z,88.90
2019-06-07T11:44:13.127Z,90.00
2019-06-07T11:46:50.654Z,90.00
2019-06-07T11:49:22.195Z,89.20
2019-06-07T11:52:01.285Z,89.00
2019-06-07T11:54:50.762Z,88.40
2019-06-07T11:57:23.115Z,88.40
2019-06-07T12:00:01.544Z,88.10
2019-06-07T12:02:33.415Z,88.80
2019-06-07T12:05:05.803Z,87.80
2019-06-07T12:07:41.535Z,88.60
2019-06-07T12:10:17.987Z,89.70
2019-06-07T12:12:51.205Z,88.70
2019-06-07T12:15:23.201Z,90.00
2019-06-07T12:18:05.145Z,90.50
2019-06-07T12:20:38.072Z,90.30
2019-06-07T12:23:09.998Z,90.20
2019-06-07T12:25:42.773Z,87.70
2019-06-07T12:28:14.619Z,88.70
2019-06-07T12:30:47.707Z,88.50
2019-06-07T12:33:19.715Z,89.20
2019-06-07T12:35:53.727Z,88.40
2019-06-07T12:38:25.153Z,88.00
2019-06-07T12:40:59.790Z,87.10
2019-06-07T12:43:31.592Z,87.40
2019-06-07T12:46:14.351Z,87.60
2019-06-07T12:48:44.522Z,88.40
2019-06-07T12:51:19.455Z,87.80
2019-06-07T12:53:52.429Z,89.10
2019-06-07T12:56:52.285Z,88.90
2019-06-07T12:59:24.213Z,89.00
2019-06-07T13:02:01.837Z,88.00
2019-06-07T13:04:29.785Z,89.90
2019-06-07T13:07:01.738Z,88.70
2019-06-07T13:09:36.030Z,88.50
2019-06-07T13:12:06.764Z,88.10
2019-06-07T13:14:40.313Z,88.70
2019-06-07T13:17:11.421Z,87.60
2019-06-07T13:19:43.114Z,89.30
2019-06-07T13:22:16.091Z,87.80
2019-06-07T13:24:49.381Z,89.00
2019-06-07T13:27:20.602Z,88.00
2019-06-07T13:29:53.828Z,90.00
2019-06-07T13:32:25.237Z,90.20
2019-06-07T13:35:03.097Z,89.70
2019-06-07T13:37:34.894Z,88.70
2019-06-07T13:40:07.034Z,90.50
2019-06-07T13:42:40.767Z,89.80
2019-06-07T13:45:13.978Z,89.10
2019-06-07T13:47:45.834Z,88.10
2019-06-07T13:50:19.485Z,90.10
2019-06-07T13:52:51.947Z,88.10
2019-06-07T13:55:25.885Z,88.80
2019-06-07T13:57:59.437Z,87.20
2019-06-07T14:00:33.565Z,88.90
2019-06-07T14:06:05.069Z,88.70
2019-06-07T14:08:37.365Z,88.20
2019-06-07T14:11:08.864Z,88.60
2019-06-07T14:13:50.982Z,87.90
2019-06-07T14:16:22.296Z,88.90
2019-06-07T14:18:53.450Z,89.40
2019-06-07T14:21:26.665Z,88.30
2019-06-07T14:23:57.695Z,88.10
2019-06-07T14:26:29.450Z,88.80
2019-06-07T14:29:00.887Z,89.90
2019-06-07T14:31:32.311Z,89.70
2019-06-07T14:34:03.636Z,88.70
2019-06-07T14:36:41.042Z,89.70
2019-06-07T14:39:12.423Z,89.80
2019-06-07T14:41:43.805Z,89.30
2019-06-07T14:44:15.153Z,90.00
2019-06-07T14:46:46.510Z,90.10
2019-06-07T14:49:19.024Z,90.30
2019-06-07T14:51:51.542Z,90.60
2019-06-07T14:54:23.008Z,90.40
2019-06-07T14:56:54.369Z,90.60
2019-06-07T14:59:26.244Z,91.20
2019-06-07T15:01:57.948Z,91.10
2019-06-07T15:04:29.039Z,90.90
2019-06-07T15:07:00.428Z,91.40
2019-06-07T15:09:35.223Z,91.10
2019-06-07T15:12:06.726Z,91.50
2019-06-07T15:14:37.800Z,91.70
2019-06-07T15:17:17.255Z,92.90
2019-06-07T15:19:48.326Z,92.90
2019-06-07T15:22:19.641Z,92.30
2019-06-07T15:24:50.725Z,92.90
2019-06-07T15:27:22.033Z,93.80
2019-06-07T15:29:53.386Z,93.40
2019-06-07T15:32:25.797Z,93.90
2019-06-07T15:35:00.351Z,94.00
2019-06-07T15:37:33.041Z,94.20
2019-06-07T15:40:05.692Z,95.00
2019-06-07T15:42:47.527Z,93.80
2019-06-07T15:45:10.556Z,94.30
2019-06-07T15:47:41.917Z,94.40
2019-06-07T15:50:15.280Z,93.70
2019-06-07T15:52:46.392Z,93.40
2019-06-07T15:55:18.371Z,92.50
2019-06-07T15:57:51.991Z,92.00
2019-06-07T16:00:27.770Z,91.70
2019-06-07T16:02:59.086Z,91.20
2019-06-07T16:05:34.377Z,91.10
2019-06-07T16:08:05.960Z,91.10
2019-06-07T16:10:38.730Z,90.80
2019-06-07T16:13:10.295Z,90.60
2019-06-07T16:15:43.362Z,90.80
2019-06-07T16:18:14.709Z,91.00
2019-06-07T16:20:47.122Z,91.00
2019-06-07T16:23:19.984Z,90.90
2019-06-07T16:25:54.232Z,91.10
2019-06-07T16:28:30.835Z,90.60
2019-06-07T16:31:09.684Z,90.80
2019-06-07T16:33:43.316Z,90.70
2019-06-07T16:36:17.521Z,91.30
2019-06-07T16:38:49.177Z,91.80
2019-06-07T16:41:21.105Z,92.70
2019-06-07T16:43:58.954Z,92.90
2019-06-07T16:46:42.994Z,93.30
2019-06-07T16:49:16.029Z,93.60
2019-06-07T16:51:47.740Z,94.30
2019-06-07T16:54:20.641Z,94.60
2019-06-07T16:56:55.089Z,94.70
2019-06-07T16:59:48.939Z,94.80
2019-06-07T17:02:18.414Z,95.30
2019-06-07T17:04:49.698Z,95.30
2019-06-07T17:07:20.720Z,95.60
2019-06-07T17:09:51.669Z,95.60
2019-06-07T17:12:26.823Z,95.10
2019-06-07T17:15:00.716Z,95.20
2019-06-07T17:17:45.323Z,95.40
2019-06-07T17:20:23.933Z,95.40
2019-06-07T17:22:57.087Z,95.70
2019-06-07T17:25:28.596Z,95.20
2019-06-07T17:28:00.581Z,94.70
2019-06-07T17:30:32.202Z,94.00
2019-06-07T17:33:04.283Z,93.50
2019-06-07T17:35:36.648Z,93.60
2019-06-07T17:38:12.339Z,93.60
2019-06-07T17:40:56.775Z,94.00
2019-06-07T17:43:28.434Z,94.70
2019-06-07T17:46:01.416Z,95.50
2019-06-07T17:48:34.282Z,95.40
2019-06-07T17:51:05.696Z,95.80
2019-06-07T17:53:37.458Z,96.30
2019-06-07T17:56:12.674Z,96.60
2019-06-07T17:58:44.314Z,96.50
2019-06-07T18:01:17.414Z,97.10
2019-06-07T18:03:51.255Z,97.20
2019-06-07T18:06:26.134Z,97.10
2019-06-07T18:09:19.704Z,97.70
2019-06-07T18:12:20.730Z,97.90
2019-06-07T18:17:58.351Z,97.90
2019-06-07T18:20:29.873Z,97.60
2019-06-07T18:23:01.806Z,97.60
2019-06-07T18:25:33.455Z,97.70
2019-06-07T18:28:04.946Z,97.90
2019-06-07T18:30:39.407Z,98.00
2019-06-07T18:33:11.302Z,97.80
2019-06-07T18:35:42.970Z,98.20
2019-06-07T18:38:14.341Z,98.00
2019-06-07T18:40:47.132Z,97.80
2019-06-07T18:43:20.623Z,98.10
2019-06-07T18:45:55.850Z,97.80
2019-06-07T18:48:28.614Z,97.80
2019-06-07T18:51:00.806Z,97.80
2019-06-07T18:53:36.023Z,97.80
2019-06-07T18:56:07.330Z,97.60
2019-06-07T18:58:39.283Z,97.70
2019-06-07T19:01:12.254Z,98.00
2019-06-07T19:03:47.149Z,97.80
2019-06-07T19:06:19.069Z,97.80
2019-06-07T19:08:55.535Z,97.70
2019-06-07T19:11:29.996Z,98.00
2019-06-07T19:14:05.219Z,97.90
2019-06-07T19:16:36.956Z,97.90
2019-06-07T19:19:12.968Z,97.80
2019-06-07T19:21:44.623Z,97.70
2019-06-07T19:24:16.381Z,97.60
2019-06-07T19:26:52.509Z,97.70
2019-06-07T19:29:25.279Z,97.70
2019-06-07T19:31:57.002Z,97.90
2019-06-07T19:34:28.746Z,97.80
2019-06-07T19:37:05.747Z,97.70
2019-06-07T19:39:38.698Z,97.70
2019-06-07T19:42:10.890Z,97.70
2019-06-07T19:44:53.121Z,97.80
2019-06-07T19:47:17.888Z,97.90
2019-06-07T19:49:49.839Z,97.90
2019-06-07T19:52:22.168Z,97.90
2019-06-07T19:54:55.669Z,97.80
2019-06-07T19:57:26.728Z,98.00
2019-06-07T19:59:57.755Z,98.00
2019-06-07T20:02:29.988Z,98.00
2019-06-07T20:05:04.762Z,98.10
2019-06-07T20:07:34.831Z,98.10
2019-06-07T20:10:18.410Z,97.90
2019-06-07T20:12:54.460Z,97.90
2019-06-07T20:15:29.519Z,97.80
2019-06-07T20:18:01.305Z,97.90
2019-06-07T20:20:32.653Z,98.10
2019-06-07T20:23:05.244Z,97.80
2019-06-07T20:25:36.662Z,97.20
2019-06-07T20:28:09.334Z,97.50
2019-06-07T20:30:41.374Z,97.60
2019-06-07T20:33:12.737Z,97.70
2019-06-07T20:35:43.945Z,97.80
2019-06-07T20:38:16.706Z,97.70
2019-06-07T20:41:01.063Z,97.50
2019-06-07T20:43:32.176Z,97.90
2019-06-07T20:46:04.994Z,97.70
2019-06-07T20:48:35.825Z,97.40
2019-06-07T20:51:08.532Z,97.60
2019-06-07T20:53:39.634Z,97.10
2019-06-07T20:56:10.740Z,97.40
2019-06-07T20:58:41.905Z,97.70
2019-06-07T21:01:13.066Z,97.30
2019-06-07T21:03:44.966Z,97.50
2019-06-07T21:06:15.881Z,97.20
2019-06-07T21:08:47.148Z,96.80
2019-06-07T21:11:18.212Z,97.50
2019-06-07T21:13:49.383Z,97.40
2019-06-07T21:16:26.186Z,96.80
2019-06-07T21:18:57.622Z,97.30
2019-06-07T21:21:29.144Z,97.50
2019-06-07T21:24:00.533Z,97.40
2019-06-07T21:26:31.888Z,97.10
2019-06-07T21:29:04.839Z,97.30
2019-06-07T21:31:36.108Z,97.30
2019-06-07T21:34:10.426Z,97.40
2019-06-07T21:36:39.907Z,97.40
2019-06-07T21:39:12.374Z,96.90
2019-06-07T21:41:43.500Z,96.90
2019-06-07T21:44:14.713Z,97.20
2019-06-07T21:46:45.911Z,96.90
2019-06-07T21:49:17.353Z,97.20
2019-06-07T21:51:48.543Z,96.90
2019-06-07T21:54:19.719Z,96.70
2019-06-07T21:56:51.158Z,96.90
2019-06-07T21:59:22.901Z,97.10
2019-06-07T22:01:54.152Z,97.00
2019-06-07T22:04:25.452Z,96.60
2019-06-07T22:06:56.784Z,96.80
2019-06-07T22:09:27.959Z,96.90
2019-06-07T22:11:59.132Z,96.90
2019-06-07T22:14:30.544Z,96.50
2019-06-07T22:17:01.486Z,96.80
2019-06-07T22:19:34.575Z,96.60
2019-06-07T22:22:07.148Z,97.00
2019-06-07T22:24:38.267Z,96.90
2019-06-07T22:27:11.285Z,96.70
2019-06-07T22:29:42.711Z,96.60
2019-06-07T22:32:14.949Z,96.60
2019-06-07T22:34:46.305Z,96.80
2019-06-07T22:37:21.213Z,96.70
2019-06-07T22:39:50.518Z,96.30
2019-06-07T22:42:21.615Z,96.60
2019-06-07T22:44:53.040Z,96.90
2019-06-07T22:47:24.428Z,96.30
2019-06-07T22:49:55.863Z,96.60
2019-06-07T22:52:27.041Z,96.60
2019-06-07T22:54:58.481Z,96.50
2019-06-07T22:57:31.077Z,96.50
2019-06-07T23:00:08.564Z,96.30
2019-06-07T23:02:35.189Z,96.10
2019-06-07T23:05:08.424Z,96.30
2019-06-07T23:07:40.069Z,96.40
2019-06-07T23:10:11.394Z,96.50
2019-06-07T23:12:42.853Z,96.10
2019-06-07T23:15:15.425Z,96.00
2019-06-07T23:17:46.538Z,96.20
2019-06-07T23:20:18.292Z,96.00
2019-06-07T23:22:49.485Z,96.00
2019-06-07T23:25:23.924Z,96.20
2019-06-07T23:27:53.507Z,96.00
2019-06-07T23:30:24.675Z,95.90
2019-06-07T23:32:56.012Z,96.00
2019-06-07T23:35:27.178Z,95.90
2019-06-07T23:37:58.140Z,96.00
2019-06-07T23:40:30.056Z,96.10
2019-06-07T23:43:01.723Z,95.90
2019-06-07T23:45:32.641Z,95.80
2019-06-07T23:48:03.878Z,95.70
2019-06-07T23:50:36.259Z,95.90
2019-06-07T23:53:07.439Z,95.90
2019-06-07T23:55:38.859Z,95.80
2019-06-07T23:58:10.069Z,95.80
